createdAt,value
2022-09-29T00:00:36.142Z,8.89
2022-09-29T00:03:03.324Z,8.75
2022-09-29T00:05:30.635Z,8.74
2022-09-29T00:07:57.476Z,8.74
2022-09-29T00:10:23.913Z,8.67
2022-09-29T00:12:50.314Z,8.57
2022-09-29T00:15:17.624Z,8.57
2022-09-29T00:17:58.029Z,8.57
2022-09-29T00:20:30.393Z,8.49
2022-09-29T00:22:56.811Z,8.43
2022-09-29T00:25:23.337Z,8.32
2022-09-29T00:27:50.810Z,8.44
2022-09-29T00:30:17.663Z,8.26
2022-09-29T00:32:44.154Z,8.26
2022-09-29T00:35:11.047Z,8.29
2022-09-29T00:37:37.991Z,8.42
2022-09-29T00:40:05.377Z,8.29
2022-09-29T00:42:32.747Z,8.30
2022-09-29T00:45:07.065Z,8.25
2022-09-29T00:47:37.731Z,8.19
2022-09-29T00:50:13.445Z,8.13
2022-09-29T00:52:44.557Z,8.12
2022-09-29T00:55:18.595Z,8.01
2022-09-29T00:58:07.395Z,7.96
2022-09-29T01:00:34.160Z,7.84
2022-09-29T01:03:08.398Z,7.91
2022-09-29T01:05:39.058Z,7.72
2022-09-29T01:08:14.745Z,7.89
2022-09-29T01:10:41.776Z,7.77
2022-09-29T01:13:08.266Z,7.81
2022-09-29T01:15:34.853Z,7.84
2022-09-29T01:18:03.819Z,7.71
2022-09-29T01:20:35.460Z,7.74
2022-09-29T01:23:44.351Z,7.65
2022-09-29T01:26:17.123Z,7.63
2022-09-29T01:29:02.797Z,7.65
2022-09-29T01:31:38.829Z,7.71
2022-09-29T01:34:29.343Z,7.70
2022-09-29T01:37:07.909Z,7.57
2022-09-29T01:39:48.422Z,7.54
2022-09-29T01:42:22.774Z,7.61
2022-09-29T01:44:56.022Z,7.64
2022-09-29T01:47:32.414Z,7.53
2022-09-29T01:50:08.006Z,7.58
2022-09-29T01:52:44.534Z,7.54
2022-09-29T01:55:17.472Z,7.53
2022-09-29T01:57:48.851Z,7.50
2022-09-29T02:00:18.676Z,7.44
2022-09-29T02:02:54.505Z,7.40
2022-09-29T02:05:29.280Z,7.37
2022-09-29T02:08:01.127Z,7.37
2022-09-29T02:10:39.229Z,7.31
2022-09-29T02:13:08.929Z,7.31
2022-09-29T02:15:39.742Z,7.31
2022-09-29T02:18:13.110Z,7.27
2022-09-29T02:20:39.866Z,7.30
2022-09-29T02:23:06.275Z,7.20
2022-09-29T02:25:35.630Z,7.17
2022-09-29T02:28:02.753Z,7.19
2022-09-29T02:30:29.118Z,7.12
2022-09-29T02:32:55.500Z,7.02
2022-09-29T02:35:22.211Z,7.03
2022-09-29T02:38:14.531Z,6.91
2022-09-29T02:41:19.482Z,6.79
2022-09-29T02:44:02.925Z,7.00
2022-09-29T02:46:46.105Z,6.89
2022-09-29T02:49:47.961Z,6.84
2022-09-29T02:52:32.015Z,6.84
2022-09-29T02:55:13.031Z,6.93
2022-09-29T02:57:58.176Z,6.68
2022-09-29T03:00:26.612Z,6.67
2022-09-29T03:02:53.115Z,6.65
2022-09-29T03:05:22.485Z,6.51
2022-09-29T03:07:49.269Z,6.55
2022-09-29T03:10:17.731Z,6.45
2022-09-29T03:12:44.214Z,6.42
2022-09-29T03:15:14.126Z,6.45
2022-09-29T03:17:41.436Z,6.42
2022-09-29T03:20:08.378Z,6.55
2022-09-29T03:22:34.922Z,6.49
2022-09-29T03:25:01.863Z,6.42
2022-09-29T03:27:28.340Z,6.28
2022-09-29T03:29:54.708Z,6.40
2022-09-29T03:32:21.187Z,6.30
2022-09-29T03:34:47.852Z,6.27
2022-09-29T03:37:14.463Z,6.48
2022-09-29T03:39:40.816Z,6.31
2022-09-29T03:42:07.395Z,6.33
2022-09-29T03:44:33.924Z,6.28
2022-09-29T03:47:00.904Z,6.35
2022-09-29T03:49:27.588Z,6.17
2022-09-29T03:51:53.978Z,6.09
2022-09-29T03:54:20.404Z,6.07
2022-09-29T03:56:47.297Z,6.13
2022-09-29T03:59:18.044Z,6.13
2022-09-29T04:01:45.042Z,6.18
2022-09-29T04:04:12.447Z,6.20
2022-09-29T04:06:38.822Z,6.10
2022-09-29T04:09:05.292Z,6.10
2022-09-29T04:11:32.387Z,6.06
2022-09-29T04:13:58.941Z,6.10
2022-09-29T04:16:25.699Z,6.17
2022-09-29T04:18:52.184Z,6.13
2022-09-29T04:21:19.652Z,5.97
2022-09-29T04:23:49.674Z,5.97
2022-09-29T04:26:17.279Z,5.90
2022-09-29T04:28:43.852Z,5.86
2022-09-29T04:31:10.242Z,5.86
2022-09-29T04:33:39.147Z,5.85
2022-09-29T04:36:06.296Z,5.79
2022-09-29T04:38:33.142Z,5.75
2022-09-29T04:40:59.851Z,5.76
2022-09-29T04:43:26.416Z,5.73
2022-09-29T04:45:52.891Z,5.92
2022-09-29T04:48:19.525Z,5.76
2022-09-29T04:50:47.073Z,5.80
2022-09-29T04:53:14.995Z,5.86
2022-09-29T04:55:41.769Z,5.86
2022-09-29T04:58:08.236Z,5.80
2022-09-29T05:00:35.153Z,5.77
2022-09-29T05:03:01.845Z,5.85
2022-09-29T05:05:28.270Z,5.75
2022-09-29T05:07:54.844Z,5.75
2022-09-29T05:10:21.570Z,5.65
2022-09-29T05:12:50.245Z,5.59
2022-09-29T05:15:22.107Z,5.63
2022-09-29T05:17:51.516Z,5.69
2022-09-29T05:20:17.989Z,5.69
2022-09-29T05:22:44.411Z,5.44
2022-09-29T05:25:10.958Z,5.51
2022-09-29T05:27:37.611Z,5.60
2022-09-29T05:30:04.683Z,5.62
2022-09-29T05:32:31.159Z,5.63
2022-09-29T05:34:57.919Z,5.54
2022-09-29T05:37:24.459Z,5.54
2022-09-29T05:39:50.963Z,5.38
2022-09-29T05:42:17.763Z,5.59
2022-09-29T05:44:44.235Z,5.59
2022-09-29T05:47:10.741Z,5.58
2022-09-29T05:49:37.160Z,5.54
2022-09-29T05:52:03.762Z,5.48
2022-09-29T05:54:30.248Z,5.55
2022-09-29T05:56:56.963Z,5.52
2022-09-29T05:59:23.475Z,5.52
2022-09-29T06:01:49.979Z,5.59
2022-09-29T06:04:17.776Z,5.59
2022-09-29T06:06:44.343Z,5.62
2022-09-29T06:09:10.891Z,5.69
2022-09-29T06:11:37.422Z,5.70
2022-09-29T06:14:04.027Z,5.66
2022-09-29T06:16:32.305Z,5.72
2022-09-29T06:19:01.089Z,5.77
2022-09-29T06:21:30.825Z,5.87
2022-09-29T06:23:58.304Z,5.87
2022-09-29T06:26:26.902Z,5.89
2022-09-29T06:28:54.234Z,5.92
2022-09-29T06:32:36.148Z,5.93
2022-09-29T06:35:21.439Z,6.00
2022-09-29T06:37:48.140Z,6.07
2022-09-29T06:40:14.610Z,6.09
2022-09-29T06:42:41.043Z,6.13
2022-09-29T06:45:09.410Z,6.25
2022-09-29T06:47:37.923Z,6.95
2022-09-29T06:50:11.099Z,7.55
2022-09-29T06:52:40.223Z,7.72
2022-09-29T06:55:07.169Z,7.64
2022-09-29T06:57:33.561Z,7.63
2022-09-29T07:00:00.225Z,7.89
2022-09-29T07:02:26.826Z,8.30
2022-09-29T07:04:53.504Z,8.25
2022-09-29T07:07:20.012Z,8.53
2022-09-29T07:09:46.737Z,9.39
2022-09-29T07:12:13.268Z,8.44
2022-09-29T07:14:39.664Z,8.70
2022-09-29T07:17:06.336Z,8.63
2022-09-29T07:19:33.397Z,8.82
2022-09-29T07:21:59.926Z,8.74
2022-09-29T07:24:26.431Z,9.10
2022-09-29T07:26:52.824Z,9.47
2022-09-29T07:29:19.553Z,9.63
2022-09-29T07:31:52.257Z,10.22
2022-09-29T07:34:20.580Z,10.00
2022-09-29T07:36:47.397Z,9.08
2022-09-29T07:39:13.873Z,9.26
2022-09-29T07:41:40.460Z,9.97
2022-09-29T07:44:06.828Z,9.60
2022-09-29T07:46:33.498Z,9.73
2022-09-29T07:48:59.922Z,9.49
2022-09-29T07:51:26.575Z,9.93
2022-09-29T07:53:53.401Z,10.99
2022-09-29T07:56:22.266Z,10.79
2022-09-29T07:58:49.949Z,10.63
2022-09-29T08:01:18.098Z,10.59
2022-09-29T08:03:49.961Z,10.99
2022-09-29T08:06:16.714Z,11.24
2022-09-29T08:08:55.932Z,11.04
2022-09-29T08:11:31.590Z,10.25
2022-09-29T08:13:58.679Z,10.58
2022-09-29T08:16:25.945Z,11.89
2022-09-29T08:18:52.402Z,11.66
2022-09-29T08:21:18.806Z,12.33
2022-09-29T08:23:45.693Z,12.76
2022-09-29T08:26:21.200Z,13.39
2022-09-29T08:28:59.768Z,12.84
2022-09-29T08:31:29.377Z,12.65
2022-09-29T08:33:58.708Z,13.30
2022-09-29T08:36:25.921Z,13.98
2022-09-29T08:38:54.369Z,14.39
2022-09-29T08:41:39.412Z,13.36
2022-09-29T08:44:35.540Z,13.34
2022-09-29T08:47:42.995Z,13.06
2022-09-29T08:50:33.646Z,13.85
2022-09-29T08:53:12.974Z,14.01
2022-09-29T08:55:57.987Z,15.08
2022-09-29T08:58:24.981Z,15.05
2022-09-29T09:00:57.308Z,14.42
2022-09-29T09:03:27.002Z,14.70
2022-09-29T09:06:05.369Z,15.74
2022-09-29T09:09:10.632Z,15.18
2022-09-29T09:11:57.330Z,14.98
2022-09-29T09:14:36.142Z,15.22
2022-09-29T09:17:20.502Z,16.99
2022-09-29T09:20:11.847Z,16.45
2022-09-29T09:22:52.399Z,14.88
2022-09-29T09:25:32.279Z,16.95
2022-09-29T09:28:22.263Z,15.62
2022-09-29T09:30:55.106Z,15.39
2022-09-29T09:33:38.112Z,16.78
2022-09-29T09:36:31.033Z,16.42
2022-09-29T09:39:06.247Z,16.80
2022-09-29T09:41:36.411Z,15.55
2022-09-29T09:44:12.811Z,17.10
2022-09-29T09:46:41.453Z,17.47
2022-09-29T09:49:19.818Z,17.78
2022-09-29T09:52:14.175Z,17.59
2022-09-29T09:54:46.074Z,18.77
2022-09-29T09:57:52.281Z,18.32
2022-09-29T10:00:33.612Z,19.55
2022-09-29T10:03:04.389Z,18.33
2022-09-29T10:05:38.859Z,18.32
2022-09-29T10:08:27.965Z,18.23
2022-09-29T10:10:58.966Z,18.77
2022-09-29T10:13:28.347Z,18.64
2022-09-29T10:16:17.945Z,20.34
2022-09-29T10:18:48.554Z,19.06
2022-09-29T10:21:38.165Z,18.09
2022-09-29T10:24:08.072Z,19.85
2022-09-29T10:26:42.770Z,19.67
2022-09-29T10:29:18.152Z,17.91
2022-09-29T10:31:59.493Z,18.15
2022-09-29T10:34:26.499Z,19.76
2022-09-29T10:37:00.990Z,17.58
2022-09-29T10:39:31.743Z,18.54
2022-09-29T10:41:58.217Z,20.39
2022-09-29T10:44:31.471Z,18.80
2022-09-29T10:46:58.449Z,19.87
2022-09-29T10:49:31.187Z,21.20
2022-09-29T10:52:17.643Z,21.61
2022-09-29T10:54:58.245Z,21.13
2022-09-29T10:57:31.076Z,17.57
2022-09-29T10:59:58.390Z,19.01
2022-09-29T11:02:32.998Z,21.11
2022-09-29T11:05:03.500Z,20.77
2022-09-29T11:07:32.621Z,22.02
2022-09-29T11:09:59.354Z,21.57
2022-09-29T11:12:34.310Z,22.70
2022-09-29T11:15:02.495Z,20.48
2022-09-29T11:17:56.652Z,21.45
2022-09-29T11:20:30.061Z,21.95
2022-09-29T11:23:07.259Z,19.67
2022-09-29T11:26:05.651Z,18.94
2022-09-29T11:28:43.815Z,18.33
2022-09-29T11:31:19.493Z,19.16
2022-09-29T11:34:04.951Z,18.10
2022-09-29T11:37:09.459Z,20.36
2022-09-29T11:39:50.721Z,21.13
2022-09-29T11:42:33.798Z,19.76
2022-09-29T11:45:03.518Z,18.91
2022-09-29T11:47:57.749Z,18.81
2022-09-29T11:50:49.270Z,20.05
2022-09-29T11:53:49.595Z,20.96
2022-09-29T11:56:28.284Z,22.00
2022-09-29T11:59:29.110Z,22.37
2022-09-29T12:02:20.731Z,23.35
2022-09-29T12:05:19.681Z,23.07
2022-09-29T12:08:02.915Z,22.30
2022-09-29T12:10:53.077Z,20.96
2022-09-29T12:13:19.582Z,21.45
2022-09-29T12:16:18.747Z,22.68
2022-09-29T12:19:04.664Z,23.90
2022-09-29T12:21:40.884Z,23.25
2022-09-29T12:24:47.381Z,21.41
2022-09-29T12:27:20.132Z,21.04
2022-09-29T12:30:04.471Z,19.60
2022-09-29T12:32:40.573Z,19.60
2022-09-29T12:35:17.307Z,20.59
2022-09-29T12:38:01.047Z,22.18
2022-09-29T12:40:34.002Z,22.95
2022-09-29T12:43:06.212Z,22.23
2022-09-29T12:45:38.731Z,22.30
2022-09-29T12:48:12.619Z,22.16
2022-09-29T12:50:44.790Z,22.23
2022-09-29T12:53:32.177Z,22.44
2022-09-29T12:56:21.875Z,22.63
2022-09-29T12:58:54.207Z,24.04
2022-09-29T13:01:27.834Z,24.61
2022-09-29T13:04:06.866Z,24.11
2022-09-29T13:07:18.651Z,22.63
2022-09-29T13:10:22.606Z,21.32
2022-09-29T13:13:01.325Z,22.06
2022-09-29T13:15:49.180Z,21.67
2022-09-29T13:18:53.978Z,22.44
2022-09-29T13:21:35.668Z,22.13
2022-09-29T13:24:18.853Z,20.92
2022-09-29T13:27:17.179Z,20.15
2022-09-29T13:29:56.272Z,19.26
2022-09-29T13:32:24.107Z,19.19
2022-09-29T13:35:00.009Z,19.12
2022-09-29T13:37:32.411Z,18.98
2022-09-29T13:40:11.304Z,18.98
2022-09-29T13:42:44.952Z,18.83
2022-09-29T13:45:35.487Z,18.68
2022-09-29T13:48:23.970Z,18.48
2022-09-29T13:51:05.177Z,18.50
2022-09-29T13:53:36.368Z,18.50
2022-09-29T13:56:09.829Z,18.67
2022-09-29T13:58:44.271Z,19.41
2022-09-29T14:01:15.291Z,20.35
2022-09-29T14:03:45.159Z,21.03
2022-09-29T14:09:23.232Z,21.77
2022-09-29T14:11:52.838Z,22.06
2022-09-29T14:14:22.293Z,21.47
2022-09-29T14:17:25.615Z,20.83
2022-09-29T14:20:22.129Z,20.72
2022-09-29T14:22:57.096Z,20.84
2022-09-29T14:25:29.211Z,21.20
2022-09-29T14:28:03.683Z,22.10
2022-09-29T14:30:33.359Z,22.43
2022-09-29T14:33:04.878Z,22.18
2022-09-29T14:35:37.903Z,21.82
2022-09-29T14:38:13.149Z,21.47
2022-09-29T14:40:39.885Z,21.50
2022-09-29T14:43:18.024Z,21.11
2022-09-29T14:46:31.602Z,20.80
2022-09-29T14:49:27.045Z,20.41
2022-09-29T14:52:06.487Z,20.55
2022-09-29T14:55:21.225Z,20.99
2022-09-29T14:58:12.335Z,21.23
2022-09-29T15:00:54.174Z,21.26
2022-09-29T15:03:49.770Z,21.69
2022-09-29T15:06:22.206Z,21.41
2022-09-29T15:09:25.073Z,21.21
2022-09-29T15:12:04.281Z,20.55
2022-09-29T15:14:36.962Z,20.89
2022-09-29T15:17:29.285Z,20.77
2022-09-29T15:20:17.091Z,20.79
2022-09-29T15:22:58.328Z,19.67
2022-09-29T15:25:34.991Z,19.70
2022-09-29T15:28:10.032Z,19.56
2022-09-29T15:30:36.865Z,19.91
2022-09-29T15:33:28.268Z,20.38
2022-09-29T15:36:01.791Z,19.73
2022-09-29T15:38:33.055Z,19.83
2022-09-29T15:41:13.153Z,19.83
2022-09-29T15:43:51.615Z,19.81
2022-09-29T15:46:21.802Z,19.19
2022-09-29T15:49:08.224Z,18.74
2022-09-29T15:51:35.954Z,18.56
2022-09-29T15:54:04.940Z,18.77
2022-09-29T15:56:32.581Z,18.80
2022-09-29T15:58:59.854Z,18.88
2022-09-29T16:01:26.487Z,18.10
2022-09-29T16:03:57.537Z,17.20
2022-09-29T16:06:33.847Z,16.69
2022-09-29T16:09:06.229Z,16.55
2022-09-29T16:11:39.915Z,16.49
2022-09-29T16:14:17.746Z,16.55
2022-09-29T16:16:47.831Z,16.41
2022-09-29T16:19:18.012Z,16.11
2022-09-29T16:21:44.840Z,15.94
2022-09-29T16:24:21.039Z,15.87
2022-09-29T16:26:49.814Z,15.73
2022-09-29T16:29:16.262Z,15.69
2022-09-29T16:31:46.745Z,15.49
2022-09-29T16:34:23.525Z,15.42
2022-09-29T16:37:15.070Z,15.30
2022-09-29T16:39:46.770Z,15.01
2022-09-29T16:42:31.712Z,15.04
2022-09-29T16:44:59.017Z,15.07
2022-09-29T16:47:28.776Z,15.21
2022-09-29T16:49:57.715Z,15.14
2022-09-29T16:52:32.257Z,15.39
2022-09-29T16:55:14.081Z,15.42
2022-09-29T16:57:54.724Z,15.17
2022-09-29T17:00:22.194Z,15.10
2022-09-29T17:02:57.948Z,14.91
2022-09-29T17:05:25.543Z,14.66
2022-09-29T17:08:01.005Z,14.60
2022-09-29T17:10:27.515Z,14.53
2022-09-29T17:12:54.683Z,14.35
2022-09-29T17:15:22.435Z,13.87
2022-09-29T17:17:50.672Z,13.50
2022-09-29T17:20:20.707Z,13.39
2022-09-29T17:22:49.065Z,13.32
2022-09-29T17:25:15.566Z,13.06
2022-09-29T17:28:02.571Z,12.91
2022-09-29T17:30:29.119Z,12.89
2022-09-29T17:32:58.083Z,12.67
2022-09-29T17:35:28.789Z,12.61
2022-09-29T17:37:56.275Z,12.58
2022-09-29T17:40:33.231Z,12.47
2022-09-29T17:43:00.268Z,12.27
2022-09-29T17:45:28.345Z,12.17
2022-09-29T17:47:55.148Z,12.30
2022-09-29T17:50:36.346Z,12.20
2022-09-29T17:53:06.447Z,12.16
2022-09-29T17:57:36.198Z,12.14
2022-09-29T18:00:06.388Z,12.14
2022-09-29T18:02:32.895Z,11.93
2022-09-29T18:04:59.483Z,11.89
2022-09-29T18:07:26.000Z,11.97
2022-09-29T18:09:52.349Z,11.78
2022-09-29T18:12:18.732Z,11.81
2022-09-29T18:14:45.116Z,11.74
2022-09-29T18:17:11.511Z,11.72
2022-09-29T18:19:39.302Z,11.69
2022-09-29T18:22:07.884Z,11.62
2022-09-29T18:24:34.849Z,11.65
2022-09-29T18:27:01.318Z,11.72
2022-09-29T18:29:28.037Z,11.75
2022-09-29T18:31:54.414Z,11.79
2022-09-29T18:34:22.054Z,11.82
2022-09-29T18:36:48.661Z,11.93
2022-09-29T18:39:15.018Z,11.95
2022-09-29T18:41:41.492Z,11.76
2022-09-29T18:44:16.668Z,11.82
2022-09-29T18:46:44.432Z,11.86
2022-09-29T18:49:12.618Z,11.70
2022-09-29T18:51:39.179Z,11.75
2022-09-29T18:54:06.223Z,11.78
2022-09-29T18:56:32.665Z,11.68
2022-09-29T18:58:59.667Z,11.70
2022-09-29T19:01:29.962Z,11.42
2022-09-29T19:03:56.743Z,11.04
2022-09-29T19:06:23.396Z,10.93
2022-09-29T19:08:52.017Z,10.87
2022-09-29T19:11:25.410Z,10.94
2022-09-29T19:13:55.122Z,11.03
2022-09-29T19:16:23.316Z,10.97
2022-09-29T19:18:49.883Z,10.81
2022-09-29T19:21:17.158Z,10.73
2022-09-29T19:23:46.584Z,10.70
2022-09-29T19:26:16.921Z,10.63
2022-09-29T19:28:44.370Z,10.66
2022-09-29T19:31:14.713Z,10.46
2022-09-29T19:33:42.791Z,10.38
2022-09-29T19:36:14.551Z,10.41
2022-09-29T19:38:41.458Z,10.33
2022-09-29T19:41:13.195Z,10.26
2022-09-29T19:43:40.046Z,10.28
2022-09-29T19:46:08.792Z,10.14
2022-09-29T19:48:35.217Z,9.87
2022-09-29T19:51:20.428Z,9.84
2022-09-29T19:53:48.987Z,9.93
2022-09-29T19:56:17.202Z,9.77
2022-09-29T19:58:43.698Z,9.98
2022-09-29T20:01:11.813Z,9.83
2022-09-29T20:03:38.320Z,9.79
2022-09-29T20:06:06.587Z,9.67
2022-09-29T20:08:33.854Z,9.73
2022-09-29T20:11:08.857Z,9.76
2022-09-29T20:13:35.511Z,9.90
2022-09-29T20:16:03.263Z,9.84
2022-09-29T20:18:29.773Z,9.66
2022-09-29T20:20:56.174Z,9.49
2022-09-29T20:23:24.190Z,9.53
2022-09-29T20:25:59.024Z,9.54
2022-09-29T20:28:26.046Z,9.40
2022-09-29T20:30:59.687Z,9.32
2022-09-29T20:33:26.751Z,9.11
2022-09-29T20:35:53.343Z,9.05
2022-09-29T20:38:20.033Z,9.05
2022-09-29T20:40:49.039Z,9.00
2022-09-29T20:43:15.543Z,8.91
2022-09-29T20:45:42.123Z,8.97
2022-09-29T20:48:10.244Z,8.92
2022-09-29T20:50:37.090Z,9.00
2022-09-29T20:53:04.922Z,8.78
2022-09-29T20:55:32.005Z,8.88
2022-09-29T20:58:00.307Z,8.89
2022-09-29T21:00:26.721Z,8.78
2022-09-29T21:02:53.248Z,8.64
2022-09-29T21:05:19.671Z,8.71
2022-09-29T21:07:46.143Z,8.74
2022-09-29T21:10:13.117Z,8.80
2022-09-29T21:12:39.577Z,8.74
2022-09-29T21:15:06.250Z,8.60
2022-09-29T21:17:33.903Z,8.53
2022-09-29T21:20:00.345Z,8.43
2022-09-29T21:22:27.908Z,8.42
2022-09-29T21:24:54.885Z,8.37
2022-09-29T21:27:21.295Z,8.33
2022-09-29T21:29:48.091Z,8.43
2022-09-29T21:32:14.544Z,8.32
2022-09-29T21:34:40.962Z,8.22
2022-09-29T21:37:07.362Z,8.15
2022-09-29T21:39:35.555Z,8.16
2022-09-29T21:42:02.123Z,8.25
2022-09-29T21:44:28.496Z,8.19
2022-09-29T21:46:54.956Z,8.21
2022-09-29T21:49:21.377Z,8.16
2022-09-29T21:51:49.450Z,8.09
2022-09-29T21:54:18.832Z,8.06
2022-09-29T21:56:46.952Z,8.05
2022-09-29T21:59:15.649Z,8.09
2022-09-29T22:01:43.118Z,8.06
2022-09-29T22:04:10.587Z,7.98
2022-09-29T22:06:38.674Z,7.92
2022-09-29T22:09:07.504Z,7.98
2022-09-29T22:11:38.714Z,7.82
2022-09-29T22:14:06.055Z,7.81
2022-09-29T22:16:33.898Z,7.84
2022-09-29T22:19:23.357Z,7.84
2022-09-29T22:21:50.574Z,7.84
2022-09-29T22:24:19.672Z,7.78
2022-09-29T22:26:46.314Z,7.75
2022-09-29T22:29:13.755Z,7.64
2022-09-29T22:31:40.842Z,7.72
2022-09-29T22:34:08.382Z,7.78
2022-09-29T22:36:35.603Z,7.77
2022-09-29T22:39:04.479Z,7.67
2022-09-29T22:41:31.567Z,7.61
2022-09-29T22:43:59.977Z,7.64
2022-09-29T22:46:29.174Z,7.54
2022-09-29T22:48:56.644Z,7.51
2022-09-29T22:51:23.143Z,7.48
2022-09-29T22:53:49.835Z,7.57
2022-09-29T22:56:19.346Z,7.43
2022-09-29T22:58:48.824Z,7.35
2022-09-29T23:01:17.967Z,7.31
2022-09-29T23:03:45.637Z,7.35
2022-09-29T23:06:13.545Z,7.37
2022-09-29T23:08:40.966Z,7.42
2022-09-29T23:11:08.595Z,7.44
2022-09-29T23:13:40.491Z,7.47
2022-09-29T23:16:12.530Z,7.46
2022-09-29T23:18:44.811Z,7.61
2022-09-29T23:21:19.195Z,7.43
2022-09-29T23:23:51.872Z,7.47
2022-09-29T23:26:18.797Z,7.37
2022-09-29T23:28:45.689Z,7.42
2022-09-29T23:31:12.499Z,7.30
2022-09-29T23:33:39.236Z,7.33
2022-09-29T23:36:09.901Z,7.30
2022-09-29T23:38:59.542Z,7.27
2022-09-29T23:41:29.980Z,7.16
2022-09-29T23:43:58.809Z,7.14
2022-09-29T23:46:27.111Z,7.05
2022-09-29T23:48:53.587Z,7.00
2022-09-29T23:51:19.955Z,6.97
2022-09-29T23:53:46.667Z,6.95
2022-09-29T23:56:13.112Z,6.97
